createdAt,value
2022-07-26T00:00:10.698Z,6.90
2022-07-26T00:01:10.752Z,8.50
2022-07-26T00:02:13.134Z,9.90
2022-07-26T00:03:11.672Z,6.80
2022-07-26T00:04:10.659Z,10.60
2022-07-26T00:05:10.651Z,9.80
2022-07-26T00:06:10.643Z,10.70
2022-07-26T00:07:10.635Z,7.20
2022-07-26T00:08:10.784Z,8.20
2022-07-26T00:09:11.194Z,9.90
2022-07-26T00:10:10.604Z,7.40
2022-07-26T00:11:10.587Z,7.10
2022-07-26T00:12:10.629Z,8.60
2022-07-26T00:13:10.576Z,9.40
2022-07-26T00:14:10.555Z,9.40
2022-07-26T00:15:10.582Z,11.30
2022-07-26T00:16:10.601Z,9.20
2022-07-26T00:17:10.530Z,7.20
2022-07-26T00:18:12.096Z,8.90
2022-07-26T00:19:10.951Z,7.00
2022-07-26T00:20:10.531Z,7.80
2022-07-26T00:21:11.596Z,9.10
2022-07-26T00:22:10.477Z,8.20
2022-07-26T00:23:10.471Z,6.70
2022-07-26T00:24:10.473Z,8.00
2022-07-26T00:25:10.496Z,8.10
2022-07-26T00:26:10.441Z,8.40
2022-07-26T00:27:10.436Z,8.00
2022-07-26T00:28:10.468Z,12.80
2022-07-26T00:29:10.818Z,9.20
2022-07-26T00:30:10.403Z,10.00
2022-07-26T00:31:10.497Z,8.00
2022-07-26T00:32:10.392Z,7.20
2022-07-26T00:33:10.397Z,9.10
2022-07-26T00:34:10.355Z,10.40
2022-07-26T00:35:10.361Z,6.90
2022-07-26T00:36:10.332Z,7.80
2022-07-26T00:37:10.328Z,9.10
2022-07-26T00:38:10.419Z,8.40
2022-07-26T00:39:10.758Z,8.50
2022-07-26T00:40:10.298Z,7.40
2022-07-26T00:41:10.282Z,7.80
2022-07-26T00:42:10.268Z,10.60
2022-07-26T00:43:10.281Z,12.60
2022-07-26T00:44:42.186Z,6.30
2022-07-26T00:45:10.246Z,8.70
2022-07-26T00:46:10.320Z,10.00
2022-07-26T00:47:10.227Z,6.90
2022-07-26T00:48:10.202Z,7.90
2022-07-26T00:49:10.627Z,8.10
2022-07-26T00:50:10.211Z,9.20
2022-07-26T00:51:10.171Z,11.70
2022-07-26T00:52:10.160Z,7.30
2022-07-26T00:53:10.163Z,6.70
2022-07-26T00:54:10.142Z,9.40
2022-07-26T00:55:10.167Z,10.20
2022-07-26T00:56:10.124Z,10.00
2022-07-26T00:57:10.117Z,9.90
2022-07-26T00:58:10.109Z,7.70
2022-07-26T00:59:10.680Z,8.80
2022-07-26T01:00:10.107Z,10.50
2022-07-26T01:01:10.161Z,7.20
2022-07-26T01:02:10.143Z,7.90
2022-07-26T01:03:10.093Z,8.10
2022-07-26T01:04:10.340Z,10.30
2022-07-26T01:05:10.055Z,7.60
2022-07-26T01:06:10.036Z,9.00
2022-07-26T01:07:14.650Z,9.20
2022-07-26T01:08:11.033Z,9.60
2022-07-26T01:09:10.021Z,10.70
2022-07-26T01:10:10.006Z,8.90
2022-07-26T01:11:10.005Z,5.70
2022-07-26T01:12:09.987Z,9.60
2022-07-26T01:13:09.975Z,8.80
2022-07-26T01:14:10.433Z,9.00
2022-07-26T01:15:09.952Z,12.60
2022-07-26T01:16:09.987Z,8.80
2022-07-26T01:17:09.942Z,10.20
2022-07-26T01:18:09.919Z,9.80
2022-07-26T01:19:09.950Z,11.20
2022-07-26T01:20:09.887Z,10.60
2022-07-26T01:21:13.896Z,10.10
2022-07-26T01:22:14.188Z,7.90
2022-07-26T01:23:10.869Z,10.30
2022-07-26T01:24:10.179Z,13.40
2022-07-26T01:25:10.856Z,10.30
2022-07-26T01:26:09.830Z,12.00
2022-07-26T01:27:09.820Z,11.50
2022-07-26T01:28:09.797Z,10.20
2022-07-26T01:29:09.791Z,10.10
2022-07-26T01:30:09.828Z,9.00
2022-07-26T01:31:10.815Z,11.00
2022-07-26T01:32:09.768Z,13.30
2022-07-26T01:33:09.745Z,12.30
2022-07-26T01:34:09.968Z,9.70
2022-07-26T01:35:09.737Z,10.30
2022-07-26T01:36:09.756Z,9.00
2022-07-26T01:37:09.721Z,8.60
2022-07-26T01:38:09.705Z,9.30
2022-07-26T01:39:09.688Z,10.30
2022-07-26T01:40:09.678Z,9.70
2022-07-26T01:41:09.692Z,9.20
2022-07-26T01:42:09.665Z,6.20
2022-07-26T01:43:09.657Z,8.40
2022-07-26T01:44:09.951Z,7.30
2022-07-26T01:45:09.631Z,12.10
2022-07-26T01:46:09.685Z,9.00
2022-07-26T01:47:09.637Z,8.50
2022-07-26T01:48:09.604Z,9.30
2022-07-26T01:49:09.670Z,9.00
2022-07-26T01:50:09.582Z,8.70
2022-07-26T01:51:09.594Z,10.80
2022-07-26T01:52:09.575Z,6.20
2022-07-26T01:53:09.567Z,10.90
2022-07-26T01:54:10.096Z,6.60
2022-07-26T01:55:09.527Z,6.80
2022-07-26T01:56:09.538Z,5.70
2022-07-26T01:57:09.506Z,6.30
2022-07-26T01:58:09.521Z,7.00
2022-07-26T01:59:09.493Z,8.90
2022-07-26T02:00:09.483Z,8.50
2022-07-26T02:01:09.512Z,6.90
2022-07-26T02:02:09.534Z,9.80
2022-07-26T02:03:09.613Z,8.70
2022-07-26T02:04:09.874Z,11.30
2022-07-26T02:05:09.436Z,7.10
2022-07-26T02:06:09.423Z,9.70
2022-07-26T02:07:13.167Z,9.80
2022-07-26T02:08:10.221Z,10.30
2022-07-26T02:09:11.567Z,9.00
2022-07-26T02:10:09.389Z,9.90
2022-07-26T02:11:09.376Z,8.50
2022-07-26T02:12:09.367Z,9.40
2022-07-26T02:13:09.348Z,7.80
2022-07-26T02:14:09.997Z,7.60
2022-07-26T02:15:09.344Z,7.90
2022-07-26T02:16:09.374Z,7.20
2022-07-26T02:17:09.307Z,7.00
2022-07-26T02:18:09.315Z,9.20
2022-07-26T02:19:09.296Z,11.00
2022-07-26T02:20:09.306Z,8.80
2022-07-26T02:21:09.272Z,9.70
2022-07-26T02:22:09.268Z,9.30
2022-07-26T02:23:09.257Z,6.80
2022-07-26T02:24:09.561Z,9.40
2022-07-26T02:25:09.237Z,8.90
2022-07-26T02:26:09.227Z,8.70
2022-07-26T02:27:09.223Z,10.40
2022-07-26T02:28:09.210Z,9.60
2022-07-26T02:29:09.209Z,5.80
2022-07-26T02:30:09.183Z,6.40
2022-07-26T02:31:09.258Z,7.60
2022-07-26T02:32:10.187Z,12.20
2022-07-26T02:33:09.165Z,7.00
2022-07-26T02:34:09.704Z,8.40
2022-07-26T02:35:09.129Z,7.30
2022-07-26T02:36:09.133Z,6.70
2022-07-26T02:37:09.135Z,7.90
2022-07-26T02:38:09.125Z,7.80
2022-07-26T02:39:09.094Z,10.40
2022-07-26T02:40:09.090Z,8.90
2022-07-26T02:41:09.096Z,9.10
2022-07-26T02:42:09.060Z,6.10
2022-07-26T02:43:09.075Z,6.10
2022-07-26T02:44:09.500Z,5.10
2022-07-26T02:45:09.024Z,9.20
2022-07-26T02:46:09.059Z,7.40
2022-07-26T02:47:09.008Z,7.50
2022-07-26T02:48:08.996Z,9.70
2022-07-26T02:49:09.106Z,8.80
2022-07-26T02:50:08.976Z,7.90
2022-07-26T02:51:08.992Z,8.50
2022-07-26T02:52:08.957Z,8.70
2022-07-26T02:53:08.960Z,12.00
2022-07-26T02:54:09.230Z,7.90
2022-07-26T02:55:08.925Z,9.60
2022-07-26T02:56:08.914Z,6.80
2022-07-26T02:57:08.902Z,9.50
2022-07-26T02:58:08.897Z,6.80
2022-07-26T02:59:08.915Z,11.00
2022-07-26T03:00:08.873Z,8.60
2022-07-26T03:01:08.894Z,10.60
2022-07-26T03:02:08.939Z,8.90
2022-07-26T03:03:08.927Z,7.60
2022-07-26T03:04:09.168Z,9.70
2022-07-26T03:05:08.855Z,6.50
2022-07-26T03:06:08.832Z,10.10
2022-07-26T03:07:08.803Z,9.50
2022-07-26T03:08:08.807Z,8.40
2022-07-26T03:09:08.800Z,6.40
2022-07-26T03:10:08.797Z,7.60
2022-07-26T03:11:11.972Z,7.80
2022-07-26T03:12:08.777Z,7.90
2022-07-26T03:13:08.751Z,6.70
2022-07-26T03:14:09.179Z,7.20
2022-07-26T03:15:08.735Z,6.50
2022-07-26T03:16:08.768Z,8.70
2022-07-26T03:17:08.727Z,9.20
2022-07-26T03:18:08.699Z,7.80
2022-07-26T03:19:08.693Z,7.20
2022-07-26T03:20:08.683Z,10.30
2022-07-26T03:21:08.674Z,7.70
2022-07-26T03:22:08.676Z,8.10
2022-07-26T03:23:08.674Z,7.40
2022-07-26T03:24:08.928Z,5.90
2022-07-26T03:25:08.647Z,8.00
2022-07-26T03:26:08.628Z,7.50
2022-07-26T03:27:08.618Z,10.20
2022-07-26T03:28:08.630Z,11.20
2022-07-26T03:29:08.595Z,9.20
2022-07-26T03:30:08.575Z,8.60
2022-07-26T03:31:08.656Z,7.20
2022-07-26T03:32:08.567Z,8.40
2022-07-26T03:33:08.593Z,8.50
2022-07-26T03:34:08.994Z,10.60
2022-07-26T03:35:08.527Z,10.30
2022-07-26T03:36:11.452Z,7.90
2022-07-26T03:37:08.503Z,9.30
2022-07-26T03:38:08.521Z,6.60
2022-07-26T03:39:08.496Z,8.00
2022-07-26T03:40:08.494Z,7.50
2022-07-26T03:41:08.488Z,5.50
2022-07-26T03:42:08.472Z,8.70
2022-07-26T03:43:08.472Z,8.00
2022-07-26T03:44:08.879Z,7.60
2022-07-26T03:45:08.449Z,12.40
2022-07-26T03:46:08.515Z,8.40
2022-07-26T03:47:08.426Z,10.50
2022-07-26T03:48:08.406Z,6.60
2022-07-26T03:49:10.961Z,8.00
2022-07-26T03:50:08.394Z,6.40
2022-07-26T03:51:08.373Z,7.40
2022-07-26T03:52:08.371Z,5.50
2022-07-26T03:53:08.373Z,9.00
2022-07-26T03:54:08.674Z,7.70
2022-07-26T03:55:08.334Z,9.10
2022-07-26T03:56:08.342Z,7.00
2022-07-26T03:57:08.374Z,6.40
2022-07-26T03:58:08.309Z,7.00
2022-07-26T03:59:08.311Z,5.70
2022-07-26T04:00:08.297Z,7.00
2022-07-26T04:01:08.346Z,5.90
2022-07-26T04:02:08.340Z,9.00
2022-07-26T04:03:08.266Z,7.70
2022-07-26T04:04:09.079Z,6.50
2022-07-26T04:05:08.243Z,7.60
2022-07-26T04:06:08.212Z,8.00
2022-07-26T04:07:08.206Z,8.90
2022-07-26T04:08:08.221Z,7.50
2022-07-26T04:09:08.225Z,5.80
2022-07-26T04:10:08.185Z,8.10
2022-07-26T04:11:08.180Z,7.50
2022-07-26T04:12:08.166Z,8.40
2022-07-26T04:13:08.170Z,8.50
2022-07-26T04:14:08.541Z,8.30
2022-07-26T04:15:08.140Z,7.60
2022-07-26T04:16:08.111Z,8.00
2022-07-26T04:17:08.188Z,7.90
2022-07-26T04:18:08.124Z,7.80
2022-07-26T04:19:08.097Z,9.00
2022-07-26T04:20:08.086Z,7.80
2022-07-26T04:21:08.092Z,5.80
2022-07-26T04:22:08.064Z,7.80
2022-07-26T04:23:11.364Z,6.60
2022-07-26T04:24:08.336Z,9.60
2022-07-26T04:25:08.037Z,8.60
2022-07-26T04:26:08.041Z,6.30
2022-07-26T04:27:08.018Z,8.90
2022-07-26T04:28:08.005Z,7.00
2022-07-26T04:29:07.987Z,6.00
2022-07-26T04:30:14.001Z,6.50
2022-07-26T04:31:10.054Z,9.30
2022-07-26T04:32:07.962Z,6.20
2022-07-26T04:33:07.969Z,7.10
2022-07-26T04:34:08.307Z,5.90
2022-07-26T04:35:07.932Z,6.10
2022-07-26T04:36:07.943Z,5.90
2022-07-26T04:37:07.913Z,5.80
2022-07-26T04:38:07.909Z,10.40
2022-07-26T04:39:07.909Z,7.50
2022-07-26T04:40:07.894Z,5.80
2022-07-26T04:41:07.901Z,5.30
2022-07-26T04:42:07.876Z,4.90
2022-07-26T04:43:09.407Z,6.90
2022-07-26T04:44:09.298Z,4.70
2022-07-26T04:45:08.720Z,5.70
2022-07-26T04:46:08.927Z,7.50
2022-07-26T04:47:07.809Z,7.00
2022-07-26T04:48:07.876Z,8.50
2022-07-26T04:49:07.885Z,5.80
2022-07-26T04:50:07.799Z,5.00
2022-07-26T04:51:07.798Z,5.70
2022-07-26T04:52:07.782Z,7.80
2022-07-26T04:53:08.087Z,6.10
2022-07-26T04:54:08.109Z,7.30
2022-07-26T04:55:07.741Z,8.50
2022-07-26T04:56:07.768Z,6.00
2022-07-26T04:57:07.723Z,8.90
2022-07-26T04:58:07.934Z,7.80
2022-07-26T04:59:07.708Z,7.30
2022-07-26T05:00:21.456Z,9.60
2022-07-26T05:01:11.006Z,8.10
2022-07-26T05:02:08.871Z,8.80
2022-07-26T05:03:07.813Z,5.70
2022-07-26T05:04:07.868Z,7.10
2022-07-26T05:05:07.645Z,6.80
2022-07-26T05:06:07.662Z,7.20
2022-07-26T05:07:07.615Z,7.10
2022-07-26T05:08:07.609Z,5.10
2022-07-26T05:09:07.631Z,5.90
2022-07-26T05:10:07.599Z,6.90
2022-07-26T05:11:07.587Z,9.50
2022-07-26T05:12:07.581Z,8.60
2022-07-26T05:13:07.559Z,4.60
2022-07-26T05:14:07.909Z,5.20
2022-07-26T05:15:13.919Z,4.20
2022-07-26T05:16:11.961Z,6.60
2022-07-26T05:17:09.119Z,6.60
2022-07-26T05:18:08.116Z,6.40
2022-07-26T05:19:07.506Z,6.80
2022-07-26T05:20:07.516Z,7.60
2022-07-26T05:21:07.500Z,4.40
2022-07-26T05:22:07.481Z,5.80
2022-07-26T06:17:41.102Z,3.20
2022-07-26T06:18:41.110Z,4.40
2022-07-26T06:19:47.393Z,2.90
2022-07-26T06:20:42.213Z,2.50
2022-07-26T06:21:42.258Z,2.70
2022-07-26T06:22:42.187Z,3.80
2022-07-26T06:23:42.178Z,4.20
2022-07-26T06:24:43.183Z,4.60
2022-07-26T06:25:42.180Z,5.00
2022-07-26T06:26:42.199Z,3.30
2022-07-26T06:27:42.151Z,3.00
2022-07-26T06:28:42.147Z,3.40
2022-07-26T06:29:42.143Z,5.20
2022-07-26T06:30:42.128Z,3.30
2022-07-26T06:31:42.216Z,4.40
2022-07-26T06:32:42.113Z,2.70
2022-07-26T06:33:42.101Z,2.60
2022-07-26T06:34:42.098Z,4.60
2022-07-26T06:35:42.085Z,2.00
2022-07-26T06:36:42.097Z,2.60
2022-07-26T06:37:42.061Z,3.80
2022-07-26T06:38:42.066Z,3.80
2022-07-26T06:39:42.074Z,2.80
2022-07-26T06:40:42.057Z,3.50
2022-07-26T06:41:42.044Z,3.40
2022-07-26T06:42:42.020Z,4.50
2022-07-26T06:43:42.012Z,3.20
2022-07-26T06:44:42.031Z,3.10
2022-07-26T06:45:42.029Z,2.60
2022-07-26T06:46:41.990Z,4.00
2022-07-26T06:47:41.966Z,3.70
2022-07-26T06:48:47.484Z,4.60
2022-07-26T06:49:43.030Z,2.80
2022-07-26T06:50:41.973Z,1.60
2022-07-26T06:51:41.947Z,2.70
2022-07-26T06:52:41.943Z,2.30
2022-07-26T06:53:42.982Z,1.90
2022-07-26T06:54:41.921Z,2.90
2022-07-26T06:55:41.902Z,9.60
2022-07-26T06:56:41.909Z,1.90
2022-07-26T06:57:49.843Z,3.00
2022-07-26T06:58:41.914Z,2.80
2022-07-26T06:59:41.869Z,3.80
2022-07-26T07:00:41.937Z,2.00
2022-07-26T07:01:51.836Z,4.30
2022-07-26T07:02:42.855Z,2.90
2022-07-26T07:03:41.838Z,2.40
2022-07-26T07:04:41.882Z,4.20
2022-07-26T07:05:45.243Z,3.30
2022-07-26T07:06:42.818Z,3.60
2022-07-26T07:07:42.236Z,5.60
2022-07-26T07:08:41.805Z,2.00
2022-07-26T07:09:41.805Z,5.80
2022-07-26T07:10:41.794Z,2.90
2022-07-26T07:11:41.784Z,2.70
2022-07-26T07:12:41.768Z,2.80
2022-07-26T07:13:41.756Z,2.90
2022-07-26T07:14:41.737Z,4.60
2022-07-26T07:15:41.753Z,5.20
2022-07-26T07:16:41.770Z,3.60
2022-07-26T07:17:41.702Z,2.70
2022-07-26T07:18:46.141Z,1.90
2022-07-26T07:19:42.704Z,3.00
2022-07-26T07:20:41.689Z,2.70
2022-07-26T07:21:41.717Z,2.90
2022-07-26T07:22:41.676Z,3.00
2022-07-26T07:23:41.669Z,3.10
2022-07-26T07:24:41.647Z,2.40
2022-07-26T07:25:41.636Z,2.00
2022-07-26T07:26:41.660Z,2.40
2022-07-26T07:27:41.662Z,1.90
2022-07-26T07:28:41.608Z,2.70
2022-07-26T07:29:42.126Z,2.80
2022-07-26T07:30:41.623Z,2.90
2022-07-26T07:31:48.917Z,2.80
2022-07-26T07:32:41.650Z,2.80
2022-07-26T07:33:52.762Z,2.30
2022-07-26T07:34:42.561Z,2.50
2022-07-26T07:35:41.574Z,2.90
2022-07-26T07:36:42.543Z,1.50
2022-07-26T07:37:53.845Z,1.70
2022-07-26T07:38:42.837Z,1.80
2022-07-26T07:39:41.538Z,3.00
2022-07-26T07:41:00.431Z,3.70
2022-07-26T07:41:41.521Z,2.90
2022-07-26T07:42:41.490Z,2.70
2022-07-26T07:43:41.493Z,4.00
2022-07-26T07:44:41.485Z,6.10
2022-07-26T07:45:41.496Z,2.90
2022-07-26T07:46:41.562Z,3.20
2022-07-26T07:47:41.451Z,2.90
2022-07-26T07:48:46.794Z,1.60
2022-07-26T07:49:43.464Z,1.90
2022-07-26T07:50:41.458Z,2.30
2022-07-26T07:51:41.408Z,2.60
2022-07-26T07:52:41.442Z,2.80
2022-07-26T07:53:41.414Z,2.20
2022-07-26T07:54:42.279Z,2.70
2022-07-26T07:56:00.275Z,3.60
2022-07-26T07:56:41.456Z,1.70
2022-07-26T07:57:41.368Z,1.80
2022-07-26T07:58:41.367Z,4.60
2022-07-26T07:59:41.371Z,23.80
2022-07-26T08:00:41.422Z,18.80
2022-07-26T08:01:41.514Z,7.40
2022-07-26T08:02:41.325Z,12.90
2022-07-26T08:03:41.379Z,4.40
2022-07-26T08:04:41.401Z,5.10
2022-07-26T08:05:41.305Z,3.10
2022-07-26T08:06:41.440Z,4.80
2022-07-26T08:07:41.294Z,4.20
2022-07-26T08:08:41.302Z,4.40
2022-07-26T08:09:42.832Z,1.70
2022-07-26T08:10:43.593Z,2.60
2022-07-26T08:11:42.312Z,3.10
2022-07-26T08:12:41.269Z,2.30
2022-07-26T08:14:00.107Z,3.80
2022-07-26T08:14:42.016Z,2.30
2022-07-26T08:15:41.968Z,1.80
2022-07-26T08:16:43.781Z,2.90
2022-07-26T08:17:42.142Z,2.60
2022-07-26T08:18:55.716Z,14.20
2022-07-26T08:19:43.195Z,4.00
2022-07-26T08:20:41.162Z,2.80
2022-07-26T08:21:41.163Z,3.10
2022-07-26T08:22:41.157Z,3.00
2022-07-26T08:23:41.136Z,2.50
2022-07-26T08:24:41.176Z,1.80
2022-07-26T08:25:55.134Z,3.80
2022-07-26T08:26:42.120Z,5.10
2022-07-26T08:27:41.406Z,2.70
2022-07-26T08:28:48.724Z,2.70
2022-07-26T08:29:43.135Z,3.80
2022-07-26T08:30:41.079Z,9.00
2022-07-26T08:31:41.160Z,3.20
2022-07-26T08:32:41.063Z,3.80
2022-07-26T08:33:45.942Z,4.30
2022-07-26T08:34:41.044Z,3.20
2022-07-26T08:35:41.026Z,4.00
2022-07-26T08:36:54.882Z,2.60
2022-07-26T08:37:43.038Z,2.50
2022-07-26T08:38:41.014Z,2.20
2022-07-26T08:39:40.994Z,2.10
2022-07-26T08:40:40.998Z,2.30
2022-07-26T08:41:41.004Z,3.10
2022-07-26T08:42:41.049Z,2.00
2022-07-26T08:43:48.985Z,2.70
2022-07-26T08:44:40.959Z,2.10
2022-07-26T08:45:40.944Z,3.20
2022-07-26T08:46:40.948Z,3.20
2022-07-26T08:48:00.803Z,3.10
2022-07-26T08:48:42.947Z,3.30
2022-07-26T08:49:40.897Z,2.40
2022-07-26T08:50:40.879Z,2.20
2022-07-26T08:51:40.876Z,4.10
2022-07-26T08:52:40.869Z,3.40
2022-07-26T08:53:40.893Z,2.60
2022-07-26T08:54:40.852Z,3.10
2022-07-26T08:56:08.217Z,2.00
2022-07-26T08:56:42.853Z,2.00
2022-07-26T08:57:40.822Z,2.40
2022-07-26T08:58:40.951Z,2.80
2022-07-26T08:59:40.850Z,3.40
2022-07-26T09:00:40.897Z,4.70
2022-07-26T09:01:40.783Z,3.10
2022-07-26T09:02:40.772Z,2.60
2022-07-26T09:03:40.842Z,2.30
2022-07-26T09:04:44.460Z,2.00
2022-07-26T09:05:41.760Z,2.90
2022-07-26T09:06:40.754Z,2.50
2022-07-26T09:07:40.756Z,2.00
2022-07-26T09:08:40.731Z,1.80
2022-07-26T09:09:40.730Z,2.30
2022-07-26T09:10:40.715Z,1.80
2022-07-26T09:11:40.691Z,2.80
2022-07-26T09:12:40.709Z,3.50
2022-07-26T09:13:40.676Z,3.70
2022-07-26T09:14:40.665Z,2.50
2022-07-26T09:15:40.654Z,2.80
2022-07-26T09:16:40.704Z,2.60
2022-07-26T09:17:40.648Z,2.10
2022-07-26T09:18:40.637Z,2.10
2022-07-26T09:19:40.622Z,2.00
2022-07-26T09:20:40.613Z,3.50
2022-07-26T09:21:40.626Z,2.10
2022-07-26T09:22:40.589Z,2.80
2022-07-26T09:23:40.633Z,1.50
2022-07-26T09:24:40.567Z,2.20
2022-07-26T09:25:40.579Z,3.10
2022-07-26T09:26:40.571Z,2.20
2022-07-26T09:27:40.562Z,4.00
2022-07-26T09:28:45.139Z,2.20
2022-07-26T09:29:40.542Z,3.10
2022-07-26T09:30:40.526Z,2.20
2022-07-26T09:31:40.565Z,2.90
2022-07-26T09:32:40.528Z,2.70
2022-07-26T09:33:40.478Z,2.80
2022-07-26T09:34:51.807Z,2.00
2022-07-26T09:35:50.982Z,2.60
2022-07-26T09:36:42.479Z,2.00
2022-07-26T09:37:40.468Z,2.60
2022-07-26T09:38:40.455Z,4.00
2022-07-26T09:39:40.470Z,2.30
2022-07-26T09:40:40.431Z,3.50
2022-07-26T09:41:40.412Z,3.70
2022-07-26T09:42:40.437Z,4.20
2022-07-26T09:43:40.405Z,2.60
2022-07-26T09:44:47.850Z,3.40
2022-07-26T09:45:40.388Z,3.80
2022-07-26T09:46:40.407Z,3.60
2022-07-26T09:47:40.368Z,2.70
2022-07-26T09:49:08.242Z,2.50
2022-07-26T09:49:41.912Z,3.30
2022-07-26T09:50:40.346Z,3.20
2022-07-26T09:51:40.360Z,4.00
2022-07-26T09:52:40.317Z,5.30
2022-07-26T09:53:40.313Z,3.80
2022-07-26T09:54:40.301Z,5.30
2022-07-26T09:55:44.830Z,3.40
2022-07-26T09:56:41.275Z,2.80
2022-07-26T09:57:40.278Z,3.30
2022-07-26T09:58:40.257Z,3.60
2022-07-26T09:59:40.247Z,4.00
2022-07-26T10:00:40.281Z,2.80
2022-07-26T10:01:40.353Z,3.80
2022-07-26T10:02:40.247Z,3.20
2022-07-26T10:03:40.252Z,4.60
2022-07-26T10:04:40.193Z,3.00
2022-07-26T10:05:40.190Z,2.80
2022-07-26T10:06:40.203Z,3.50
2022-07-26T10:07:40.170Z,3.60
2022-07-26T10:08:40.157Z,2.90
2022-07-26T10:09:40.153Z,3.00
2022-07-26T10:10:40.138Z,3.50
2022-07-26T10:11:40.133Z,3.20
2022-07-26T10:12:40.139Z,5.90
2022-07-26T10:13:40.117Z,2.90
2022-07-26T10:14:40.129Z,3.30
2022-07-26T10:15:40.117Z,2.40
2022-07-26T10:16:40.098Z,2.40
2022-07-26T10:17:40.073Z,2.50
2022-07-26T10:18:40.731Z,2.50
2022-07-26T10:19:41.769Z,2.90
2022-07-26T10:20:41.068Z,2.70
2022-07-26T10:21:40.027Z,3.30
2022-07-26T10:22:41.495Z,3.00
2022-07-26T10:23:40.037Z,2.40
2022-07-26T10:24:40.012Z,2.50
2022-07-26T10:25:40.046Z,2.60
2022-07-26T10:26:39.989Z,1.80
2022-07-26T10:27:40.980Z,3.70
2022-07-26T10:28:39.986Z,2.90
2022-07-26T10:29:39.966Z,2.30
2022-07-26T10:30:39.988Z,1.70
2022-07-26T10:31:40.014Z,2.40
2022-07-26T10:32:39.931Z,1.90
2022-07-26T10:33:39.930Z,2.40
2022-07-26T10:34:39.909Z,2.80
2022-07-26T10:35:39.906Z,2.70
2022-07-26T10:36:40.926Z,1.90
2022-07-26T10:37:39.890Z,2.50
2022-07-26T10:38:39.880Z,3.10
2022-07-26T10:39:39.846Z,2.20
2022-07-26T10:40:39.867Z,2.10
2022-07-26T10:41:39.866Z,3.90
2022-07-26T10:42:39.835Z,2.90
2022-07-26T10:43:41.401Z,2.00
2022-07-26T10:44:40.810Z,2.80
2022-07-26T10:45:39.829Z,4.10
2022-07-26T10:46:39.922Z,3.00
2022-07-26T10:47:39.780Z,2.20
2022-07-26T10:48:39.793Z,2.40
2022-07-26T10:49:40.768Z,2.50
2022-07-26T10:50:39.754Z,2.00
2022-07-26T10:51:39.805Z,3.10
2022-07-26T10:52:39.726Z,3.70
2022-07-26T10:53:39.717Z,3.90
2022-07-26T10:54:39.721Z,3.30
2022-07-26T10:55:39.695Z,2.50
2022-07-26T10:56:39.715Z,3.00
2022-07-26T10:57:39.722Z,2.70
2022-07-26T10:58:39.672Z,2.60
2022-07-26T10:59:55.462Z,2.50
2022-07-26T11:00:41.667Z,3.30
2022-07-26T11:01:39.709Z,6.10
2022-07-26T11:02:39.748Z,5.30
2022-07-26T11:03:39.640Z,6.70
2022-07-26T11:04:39.617Z,2.40
2022-07-26T11:05:39.614Z,2.80
2022-07-26T11:06:39.608Z,2.70
2022-07-26T11:07:39.585Z,5.70
2022-07-26T11:08:42.356Z,3.10
2022-07-26T11:09:40.564Z,2.70
2022-07-26T11:10:39.624Z,4.00
2022-07-26T11:11:39.563Z,3.20
2022-07-26T11:12:40.541Z,4.80
2022-07-26T11:13:39.537Z,3.40
2022-07-26T11:14:41.689Z,2.50
2022-07-26T11:15:40.578Z,4.00
2022-07-26T11:16:39.504Z,2.80
2022-07-26T11:17:39.501Z,2.90
2022-07-26T11:18:39.480Z,2.80
2022-07-26T11:19:39.476Z,2.60
2022-07-26T11:20:39.464Z,3.30
2022-07-26T11:21:39.468Z,2.90
2022-07-26T11:22:39.441Z,3.60
2022-07-26T11:23:39.438Z,4.20
2022-07-26T11:24:39.406Z,3.50
2022-07-26T11:25:40.431Z,3.90
2022-07-26T11:26:39.443Z,5.40
2022-07-26T11:27:39.402Z,5.30
2022-07-26T11:28:39.377Z,2.70
2022-07-26T11:29:40.601Z,5.30
2022-07-26T11:30:39.365Z,4.80
2022-07-26T11:31:50.954Z,4.50
2022-07-26T11:32:40.367Z,3.10
2022-07-26T11:33:39.334Z,4.70
2022-07-26T11:34:39.358Z,4.20
2022-07-26T11:35:39.318Z,3.30
2022-07-26T11:36:39.338Z,3.40
2022-07-26T11:37:39.291Z,3.20
2022-07-26T11:38:39.283Z,2.60
2022-07-26T11:39:39.282Z,3.60
2022-07-26T11:40:39.259Z,4.40
2022-07-26T11:41:39.263Z,3.10
2022-07-26T11:42:39.276Z,3.30
2022-07-26T11:43:39.253Z,2.90
2022-07-26T11:44:39.248Z,3.00
2022-07-26T11:45:39.226Z,3.00
2022-07-26T11:46:39.253Z,3.00
2022-07-26T11:47:39.227Z,3.20
2022-07-26T11:48:39.261Z,4.70
2022-07-26T11:49:52.113Z,3.50
2022-07-26T11:50:40.161Z,2.70
2022-07-26T11:51:39.166Z,4.10
2022-07-26T11:52:39.162Z,4.60
2022-07-26T11:53:39.205Z,3.80
2022-07-26T11:54:39.122Z,3.50
2022-07-26T11:55:41.782Z,3.70
2022-07-26T11:56:40.113Z,3.30
2022-07-26T11:57:39.127Z,3.10
2022-07-26T11:58:39.083Z,3.50
2022-07-26T11:59:39.088Z,3.40
2022-07-26T12:00:39.090Z,3.40
2022-07-26T12:01:39.078Z,4.10
2022-07-26T12:02:39.098Z,4.70
2022-07-26T12:03:39.132Z,4.30
2022-07-26T12:04:39.124Z,3.40
2022-07-26T12:05:39.091Z,3.20
2022-07-26T12:06:39.033Z,3.10
2022-07-26T12:07:38.994Z,4.00
2022-07-26T12:08:39.029Z,3.40
2022-07-26T12:09:38.983Z,4.30
2022-07-26T12:10:39.010Z,3.90
2022-07-26T12:11:38.974Z,4.50
2022-07-26T12:13:10.853Z,3.30
2022-07-26T12:13:39.746Z,3.50
2022-07-26T12:14:39.926Z,3.70
2022-07-26T12:15:38.968Z,3.10
2022-07-26T12:16:38.917Z,4.20
2022-07-26T12:17:38.912Z,4.20
2022-07-26T12:18:38.902Z,4.50
2022-07-26T12:19:38.870Z,3.60
2022-07-26T12:20:38.911Z,3.80
2022-07-26T12:21:38.851Z,3.60
2022-07-26T12:22:38.869Z,3.60
2022-07-26T12:23:38.833Z,3.90
2022-07-26T12:24:38.823Z,4.40
2022-07-26T12:25:45.137Z,4.40
2022-07-26T12:26:38.814Z,4.50
2022-07-26T12:27:38.810Z,3.80
2022-07-26T12:28:38.782Z,4.00
2022-07-26T12:29:38.823Z,4.30
2022-07-26T12:30:38.815Z,4.40
2022-07-26T12:31:38.787Z,4.40
2022-07-26T12:32:38.738Z,4.20
2022-07-26T12:33:38.753Z,4.90
2022-07-26T12:34:38.735Z,4.30
2022-07-26T12:35:38.713Z,4.60
2022-07-26T12:36:38.697Z,4.50
2022-07-26T12:37:40.896Z,4.30
2022-07-26T12:38:39.699Z,6.00
2022-07-26T12:39:38.682Z,6.50
2022-07-26T12:40:38.698Z,5.30
2022-07-26T12:41:38.655Z,4.60
2022-07-26T12:42:38.716Z,5.20
2022-07-26T12:43:38.641Z,5.60
2022-07-26T12:44:38.636Z,4.70
2022-07-26T12:45:38.644Z,6.00
2022-07-26T12:46:38.658Z,4.90
2022-07-26T12:47:38.594Z,4.80
2022-07-26T12:48:38.650Z,8.10
2022-07-26T12:49:38.579Z,5.40
2022-07-26T12:50:38.585Z,4.70
2022-07-26T12:51:38.565Z,5.30
2022-07-26T12:52:38.545Z,4.70
2022-07-26T12:53:38.553Z,4.50
2022-07-26T12:54:38.530Z,5.10
2022-07-26T12:55:38.568Z,5.70
2022-07-26T12:56:38.514Z,4.90
2022-07-26T12:57:38.496Z,4.40
2022-07-26T12:58:39.502Z,7.00
2022-07-26T12:59:44.388Z,4.50
2022-07-26T13:00:39.503Z,5.40
2022-07-26T13:01:38.505Z,4.80
2022-07-26T13:02:38.461Z,4.90
2022-07-26T13:03:38.450Z,4.40
2022-07-26T13:04:38.550Z,5.00
2022-07-26T13:05:38.431Z,5.40
2022-07-26T13:06:38.413Z,4.60
2022-07-26T13:07:38.414Z,4.90
2022-07-26T13:08:38.406Z,5.30
2022-07-26T13:09:38.408Z,6.50
2022-07-26T13:10:38.389Z,4.60
2022-07-26T13:11:38.368Z,7.00
2022-07-26T13:12:38.355Z,5.90
2022-07-26T13:13:38.369Z,5.50
2022-07-26T13:14:38.341Z,4.10
2022-07-26T13:15:38.325Z,4.50
2022-07-26T13:16:38.350Z,5.60
2022-07-26T13:17:39.298Z,5.80
2022-07-26T13:18:38.300Z,4.50
2022-07-26T13:19:38.286Z,6.10
2022-07-26T13:20:38.318Z,4.80
2022-07-26T13:21:38.258Z,5.60
2022-07-26T13:22:38.249Z,4.40
2022-07-26T13:23:38.240Z,5.10
2022-07-26T13:24:38.264Z,5.40
2022-07-26T13:25:40.451Z,5.60
2022-07-26T13:26:38.230Z,5.30
2022-07-26T13:27:41.422Z,5.40
2022-07-26T13:28:39.198Z,4.90
2022-07-26T13:29:38.180Z,4.60
2022-07-26T13:30:38.350Z,5.00
2022-07-26T13:31:38.163Z,4.60
2022-07-26T13:32:38.143Z,4.80
2022-07-26T13:33:38.146Z,4.40
2022-07-26T13:34:38.142Z,4.30
2022-07-26T13:35:38.120Z,4.50
2022-07-26T13:36:38.140Z,4.50
2022-07-26T13:37:38.110Z,4.90
2022-07-26T13:38:38.097Z,5.60
2022-07-26T13:39:38.110Z,5.00
2022-07-26T13:40:38.066Z,5.90
2022-07-26T13:41:38.073Z,6.60
2022-07-26T13:42:38.081Z,4.80
2022-07-26T13:43:38.047Z,6.50
2022-07-26T13:44:38.058Z,4.50
2022-07-26T13:45:38.096Z,4.70
2022-07-26T13:46:38.398Z,5.70
2022-07-26T13:47:38.008Z,4.80
2022-07-26T13:48:44.083Z,5.20
2022-07-26T13:49:39.060Z,4.30
2022-07-26T13:50:38.007Z,6.10
2022-07-26T13:51:37.966Z,4.40
2022-07-26T13:52:37.961Z,4.50
2022-07-26T13:53:52.301Z,23.30
2022-07-26T13:54:38.945Z,5.20
2022-07-26T13:55:37.955Z,4.40
2022-07-26T13:56:37.927Z,5.60
2022-07-26T13:57:49.531Z,5.90
2022-07-26T13:58:38.905Z,6.10
2022-07-26T13:59:37.899Z,3.70
2022-07-26T14:00:37.901Z,3.40
2022-07-26T14:01:43.357Z,4.00
2022-07-26T14:02:38.888Z,5.20
2022-07-26T14:03:37.848Z,4.20
2022-07-26T14:04:37.870Z,4.00
2022-07-26T14:05:37.826Z,3.80
2022-07-26T14:06:37.824Z,5.80
2022-07-26T14:07:37.809Z,4.70
2022-07-26T14:08:37.824Z,4.20
2022-07-26T14:09:37.805Z,3.80
2022-07-26T14:10:37.788Z,3.40